Terminal Aerodrome Forecast
Issued by NWS

Home | Current Version | Previous Version | Graphics & Text | Print | Product List | Glossary On
Versions: 1 2 3 4 5 6 7 8 9 10 11 12 13 14 15 16
283
FTUS43 KICT 262331
TAFRSL
TAF
KRSL 262331Z 2700/2724 13005KT P6SM SCT045
     FM270500 12007KT P6SM VCTS BKN045CB
     FM270900 14008KT P6SM FEW009 SCT015=

USA.gov is the U.S. government's official web portal to all federal, state and local government web resources and services.